CYUL/YUL METAR and TAF weather

Enter ICAO airport designator
Station Type Date Time Source
CYUL METAR 2019/06/26 22:00 UTC NOAA

CYUL 262200Z 15010KT 30SM -SHRA FEW050TCU SCT085 BKN140 BKN240 24/18 A2991 RMK TCU2AC2AC1CI2 ACC ASOCTD SLP129 DENSITY ALT 1300FT


Station Type Date Time Source
CYUL Decoded METAR 2019/06/26 22:00 UTC NOAA

Montreal / Pierre Elliot Trudeau International Airport, Que, Canada (CYUL) 45-28N 073-45W 36M
Jun 26, 2019 - 06:00 PM EDT / 2019.06.26 2200 UTC
Wind: from the SSE (150 degrees) at 12 MPH (10 KT):0
Visibility: 30 mile(s):0
Sky conditions: mostly cloudy
Weather: light rain showers; Towering cumulus clouds observed
Temperature: 75 F (24 C)
Dew Point: 64 F (18 C)
Relative Humidity: 69%
Pressure (altimeter): 29.91 in. Hg (1012 hPa)
ob: CYUL 262200Z 15010KT 30SM -SHRA FEW050TCU SCT085 BKN140 BKN240 24/18 A2991 RMK TCU2AC2AC1CI2 ACC ASOCTD SLP129 DENSITY ALT 1300FT
cycle: 22

Station Type Date Time Source
CYUL TAF 2019/06/26 21:42 UTC NOAA

TAF CYUL 262038Z 2621/2718 17010KT P6SM FEW040 BKN080
TEMPO 2621/2702 P6SM -SHRA BKN040 OVC080 PROB30 2621/2701 VRB15G30KT 2SM TSRA BR BKN008 OVC030CB
FM270200 22007KT P6SM BKN080 PROB30 2704/2711 21/2SM BR SCT005
FM271200 23012KT P6SM SCT080
FM271700 24012G22KT P6SM FEW030
RMK NXT FCST BY 270000Z

Example: see airport list